Sioux Arrow — WAG6168 — position and weather

sailwx.info

Track history (hours):
 
Tides and Currents Weather Stations Pressure Air Temp Water Temp Dewpoint Dewpoint Depression Visibility Wind Speed Wind Dir Waves Ship Positions

Sioux Arrow

Owner: HARMON, JACK L, PORT ANGELES, WA. More information available from US FCC via Universal Licensing System and Coast Guard Vessel Documentation Center.

Last reported at 2016-May-06 04:33 UTC. Time now 2016-May-06 07:23 UTC.
Position N 48°31' W 122°36'.

Type: Port tender. MMSI: 366973370.

Date/timePositionNaut miles runAvg speedWind from/ knotsBaromVisibWave heightAir tempDewpointWater temp
2016-May-06 04:33N 48°31' W 122°36'0 0.0
2016-May-06 03:33N 48°31' W 122°36'0 0.0
2016-May-06 02:33N 48°31' W 122°36'3 2.8
2016-May-06 01:33N 48°33' W 122°34'3 2.8
2016-May-06 00:33N 48°31' W 122°36'3 3.4
2016-May-05 23:33N 48°34' W 122°34'3 3.4
2016-May-05 22:33N 48°31' W 122°36'0 0.0
2016-May-05 21:33N 48°31' W 122°36'0 0.0
2016-May-05 20:33N 48°31' W 122°36'7 6.6
2016-May-05 19:32N 48°37' W 122°34'7 6.9
2016-May-05 18:33N 48°31' W 122°36'0 0.0
2016-May-05 17:33N 48°31' W 122°36'0 0.0
2016-May-05 16:34N 48°31' W 122°36'2 2.0
2016-May-05 15:33N 48°32' W 122°34'2 2.0
2016-May-05 14:33N 48°31' W 122°36'0 0.0
2016-May-05 04:33N 48°31' W 122°36'6 6.5
2016-May-05 03:33N 48°37' W 122°34'6 6.5
2016-May-05 02:33N 48°31' W 122°36'1 0.7
2016-May-05 01:33N 48°31' W 122°35'5 4.5
2016-May-05 00:33N 48°35' W 122°32'5 5.3
2016-May-04 23:33N 48°31' W 122°36'0 0.0
2016-May-04 22:33N 48°31' W 122°36'0 0.0
2016-May-04 21:33N 48°31' W 122°36'0 0.0
2016-May-04 20:33N 48°31' W 122°36'0 0.0
2016-May-04 19:33N 48°31' W 122°36'0 0.1
2016-May-04 18:33N 48°31' W 122°36'0 0.1
2016-May-04 16:18N 48°31' W 122°36'0 0.1
2016-May-04 15:34N 48°31' W 122°36'0 0.1
2016-May-04 14:33N 48°31' W 122°36'0 0.0
2016-May-04 06:33N 48°31' W 122°36'0 0.5
2016-May-04 05:33N 48°31' W 122°36'0 0.0
2016-May-04 04:33N 48°31' W 122°36'0 0.0
2016-May-04 03:33N 48°31' W 122°36'0 0.0
2016-May-04 02:33N 48°31' W 122°36'0 0.0
2016-May-04 01:33N 48°31' W 122°36'4 0.8
2016-May-03 20:33N 48°34' W 122°34'1 1.2
2016-May-03 19:33N 48°33' W 122°34'3 3.1
2016-May-03 18:33N 48°31' W 122°36'0 0.0
2016-May-03 17:34N 48°31' W 122°36'0 0.0
2016-May-03 16:33N 48°31' W 122°36'0 0.0
2016-May-03 15:33N 48°31' W 122°36'0 0.0
2016-May-03 14:33N 48°31' W 122°36'0 0.0
2016-May-03 05:20N 48°31' W 122°36'0 0.0
2016-May-03 04:33N 48°31' W 122°36'1 0.9
2016-May-03 03:33N 48°31' W 122°35'1 0.8
2016-May-03 02:33N 48°31' W 122°36'0 0.1
2016-May-03 01:33N 48°31' W 122°36'0 0.0
2016-May-03 00:33N 48°31' W 122°36'0 0.0
2016-May-02 23:33N 48°31' W 122°36'2 1.9
2016-May-02 22:33N 48°32' W 122°34'2 2.0
2016-May-02 21:34N 48°31' W 122°37'5 5.0
2016-May-02 20:32N 48°35' W 122°33'5 5.2
2016-May-02 19:33N 48°31' W 122°36'0 0.4
2016-May-02 18:33N 48°31' W 122°37'0 0.1
2016-May-02 17:33N 48°31' W 122°36'4 4.2
2016-May-02 16:33N 48°35' W 122°34'4 4.2
2016-May-02 15:33N 48°31' W 122°36'0 0.0
2016-May-02 14:33N 48°31' W 122°36'5 4.7
2016-May-02 13:33N 48°35' W 122°34'4 3.9
2016-May-02 12:33N 48°31' W 122°35'1 0.1
2016-May-02 03:33N 48°31' W 122°36'1 1.1
2016-May-02 02:33N 48°31' W 122°35'1 1.1
2016-May-02 01:33N 48°31' W 122°36'0 0.0
2016-May-02 00:33N 48°31' W 122°36'0 0.0
2016-May-01 23:33N 48°31' W 122°36'0 0.0
2016-May-01 22:33N 48°31' W 122°36'6 5.9
2016-May-01 21:33N 48°36' W 122°32'6 5.9
2016-May-01 20:33N 48°31' W 122°36'0 0.0
2016-May-01 19:33N 48°31' W 122°36'6 6.4
2016-May-01 18:34N 48°37' W 122°33'6 6.4
2016-May-01 17:33N 48°31' W 122°36'5 4.9
2016-May-01 16:33N 48°35' W 122°34'5 4.9
2016-May-01 15:33N 48°31' W 122°36'0 0.0
2016-May-01 14:33N 48°31' W 122°36'0 0.0
2016-May-01 13:33N 48°31' W 122°36'0 0.0
2016-May-01 06:34N 48°31' W 122°36'0 0.0
2016-May-01 05:33N 48°31' W 122°36'3 2.9
2016-May-01 04:33N 48°33' W 122°34'3 2.9
2016-May-01 03:33N 48°31' W 122°36'0 0.0
2016-May-01 02:33N 48°31' W 122°36'0 0.0
2016-May-01 01:33N 48°31' W 122°36'0 0.0
2016-May-01 00:33N 48°31' W 122°36'0 0.2
2016-Apr-30 23:33N 48°31' W 122°36'0 0.2
2016-Apr-30 22:33N 48°31' W 122°36'0 0.0
2016-Apr-30 21:33N 48°31' W 122°36'0 0.0
2016-Apr-30 20:33N 48°31' W 122°36'0 0.0
2016-Apr-30 19:33N 48°31' W 122°37'6 6.2
2016-Apr-30 18:33N 48°36' W 122°33'2 2.4
2016-Apr-30 17:33N 48°34' W 122°34'4 3.8
2016-Apr-30 16:34N 48°31' W 122°37'1 0.6
2016-Apr-30 15:33N 48°31' W 122°36'1 0.5
2016-Apr-30 14:33N 48°31' W 122°36'4 0.5
2016-Apr-30 07:33N 48°34' W 122°34'4 3.6
2016-Apr-30 06:33N 48°31' W 122°36'0 0.0
2016-Apr-30 05:33N 48°31' W 122°36'0 0.0
2016-Apr-30 04:33N 48°31' W 122°36'0 0.0
2016-Apr-30 03:33N 48°31' W 122°36'0 0.1
2016-Apr-30 02:33N 48°31' W 122°36'0 0.1
2016-Apr-30 01:33N 48°31' W 122°36'0 0.0
2016-Apr-30 00:33N 48°31' W 122°36'1 1.1
2016-Apr-29 23:33N 48°31' W 122°35'1 1.1
2016-Apr-29 22:33N 48°31' W 122°36'0 0.0
2016-Apr-29 21:33N 48°31' W 122°37'0 0.0
2016-Apr-29 20:33N 48°31' W 122°37'0 0.0
2016-Apr-29 19:33N 48°31' W 122°36'0 0.0
2016-Apr-29 18:33N 48°31' W 122°36'0 0.0
2016-Apr-29 17:33N 48°31' W 122°36'0 0.0
2016-Apr-29 16:33N 48°31' W 122°36'1 1.1
2016-Apr-29 15:33N 48°31' W 122°35'1 1.0
2016-Apr-29 14:33N 48°31' W 122°36'0 0.0
2016-Apr-29 07:33N 48°31' W 122°36'7 7.0
2016-Apr-29 06:34N 48°37' W 122°32'5 5.2
2016-Apr-29 05:33N 48°32' W 122°34'2 2.0
2016-Apr-29 04:33N 48°31' W 122°36'0 0.0
2016-Apr-29 03:33N 48°31' W 122°36'0 0.2
2016-Apr-29 02:33N 48°31' W 122°36'1 0.6
2016-Apr-29 01:33N 48°31' W 122°35'1 0.8
2016-Apr-29 00:33N 48°31' W 122°36'1 1.0
2016-Apr-28 23:33N 48°31' W 122°35'1 1.0
2016-Apr-28 22:33N 48°31' W 122°36'0 0.0
2016-Apr-28 21:33N 48°31' W 122°36'0 0.0
2016-Apr-28 20:33N 48°31' W 122°36'0 0.0
2016-Apr-28 19:33N 48°31' W 122°36'0 0.0
2016-Apr-28 18:34N 48°31' W 122°36'1 1.1
2016-Apr-28 17:33N 48°31' W 122°35'0 0.1
2016-Apr-28 16:33N 48°31' W 122°35'1 0.6
2016-Apr-28 15:33N 48°31' W 122°35'1 0.6
2016-Apr-28 14:33N 48°31' W 122°36'0 0.0
2016-Apr-28 05:26N 48°31' W 122°36'0 0.0
2016-Apr-28 04:33N 48°31' W 122°36'0 0.0
2016-Apr-28 03:33N 48°31' W 122°36'0 0.2
2016-Apr-28 02:34N 48°31' W 122°36'0 0.2
2016-Apr-28 01:34N 48°31' W 122°36'0 0.0
2016-Apr-28 00:33N 48°31' W 122°36'1 0.6
2016-Apr-27 23:33N 48°31' W 122°36'0 0.3
2016-Apr-27 22:33N 48°31' W 122°36'4 4.0
2016-Apr-27 21:33N 48°35' W 122°34'1 1.2
2016-Apr-27 20:33N 48°36' W 122°34'5 5.2
2016-Apr-27 19:33N 48°31' W 122°35'1 0.8
2016-Apr-27 18:33N 48°31' W 122°36'0 0.0
2016-Apr-27 15:33N 48°31' W 122°36'0 0.1
2016-Apr-27 14:33N 48°31' W 122°36'0 0.0
2016-Apr-27 06:33N 48°31' W 122°36'0 0.0
2016-Apr-27 05:33N 48°31' W 122°36'0 0.0
2016-Apr-27 04:33N 48°31' W 122°36'1 0.7
2016-Apr-27 03:33N 48°31' W 122°35'0 0.4
2016-Apr-27 02:33N 48°31' W 122°36'0 0.3
2016-Apr-27 01:33N 48°31' W 122°36'0 0.0
2016-Apr-27 00:33N 48°31' W 122°36'1 1.0
2016-Apr-26 23:34N 48°31' W 122°35'1 1.0
2016-Apr-26 22:33N 48°31' W 122°36'0 0.0
2016-Apr-26 21:34N 48°31' W 122°36'0 0.0
2016-Apr-26 20:33N 48°31' W 122°36'0 0.2
2016-Apr-26 19:33N 48°31' W 122°36'0 0.2
2016-Apr-26 18:33N 48°31' W 122°36'0 0.0
2016-Apr-26 17:33N 48°31' W 122°36'0 0.0
2016-Apr-26 16:33N 48°31' W 122°36'0 0.1
2016-Apr-26 15:33N 48°31' W 122°37'4 3.5
2016-Apr-26 14:32N 48°34' W 122°34'3 0.7
2016-Apr-26 09:33N 48°31' W 122°36'4 0.8
2016-Apr-26 04:33N 48°35' W 122°34'  
Track history (hours):
 
Tides and Currents Weather Stations Pressure Air Temp Water Temp Dewpoint Dewpoint Depression Visibility Wind Speed Wind Dir Waves Ship Positions

Sioux Arrow

Owner: HARMON, JACK L, PORT ANGELES, WA. More information available from US FCC via Universal Licensing System and Coast Guard Vessel Documentation Center.

Last reported at 2016-May-06 04:33 UTC. Time now 2016-May-06 07:23 UTC.
Position N 48°31' W 122°36'.

Type: Port tender. MMSI: 366973370.

Date/timePositionNaut miles runAvg speedWind from/ knotsBaromVisibWave heightAir tempDewpointWater temp
2016-May-06 04:33N 48°31' W 122°36'0 0.0
2016-May-06 03:33N 48°31' W 122°36'0 0.0
2016-May-06 02:33N 48°31' W 122°36'3 2.8
2016-May-06 01:33N 48°33' W 122°34'3 2.8
2016-May-06 00:33N 48°31' W 122°36'3 3.4
2016-May-05 23:33N 48°34' W 122°34'3 3.4
2016-May-05 22:33N 48°31' W 122°36'0 0.0
2016-May-05 21:33N 48°31' W 122°36'0 0.0
2016-May-05 20:33N 48°31' W 122°36'7 6.6
2016-May-05 19:32N 48°37' W 122°34'7 6.9
2016-May-05 18:33N 48°31' W 122°36'0 0.0
2016-May-05 17:33N 48°31' W 122°36'0 0.0
2016-May-05 16:34N 48°31' W 122°36'2 2.0
2016-May-05 15:33N 48°32' W 122°34'2 2.0
2016-May-05 14:33N 48°31' W 122°36'0 0.0
2016-May-05 04:33N 48°31' W 122°36'6 6.5
2016-May-05 03:33N 48°37' W 122°34'6 6.5
2016-May-05 02:33N 48°31' W 122°36'1 0.7
2016-May-05 01:33N 48°31' W 122°35'5 4.5
2016-May-05 00:33N 48°35' W 122°32'5 5.3
2016-May-04 23:33N 48°31' W 122°36'0 0.0
2016-May-04 22:33N 48°31' W 122°36'0 0.0
2016-May-04 21:33N 48°31' W 122°36'0 0.0
2016-May-04 20:33N 48°31' W 122°36'0 0.0
2016-May-04 19:33N 48°31' W 122°36'0 0.1
2016-May-04 18:33N 48°31' W 122°36'0 0.1
2016-May-04 16:18N 48°31' W 122°36'0 0.1
2016-May-04 15:34N 48°31' W 122°36'0 0.1
2016-May-04 14:33N 48°31' W 122°36'0 0.0
2016-May-04 06:33N 48°31' W 122°36'0 0.5
2016-May-04 05:33N 48°31' W 122°36'0 0.0
2016-May-04 04:33N 48°31' W 122°36'0 0.0
2016-May-04 03:33N 48°31' W 122°36'0 0.0
2016-May-04 02:33N 48°31' W 122°36'0 0.0
2016-May-04 01:33N 48°31' W 122°36'4 0.8
2016-May-03 20:33N 48°34' W 122°34'1 1.2
2016-May-03 19:33N 48°33' W 122°34'3 3.1
2016-May-03 18:33N 48°31' W 122°36'0 0.0
2016-May-03 17:34N 48°31' W 122°36'0 0.0
2016-May-03 16:33N 48°31' W 122°36'0 0.0
2016-May-03 15:33N 48°31' W 122°36'0 0.0
2016-May-03 14:33N 48°31' W 122°36'0 0.0
2016-May-03 05:20N 48°31' W 122°36'0 0.0
2016-May-03 04:33N 48°31' W 122°36'1 0.9
2016-May-03 03:33N 48°31' W 122°35'1 0.8
2016-May-03 02:33N 48°31' W 122°36'0 0.1
2016-May-03 01:33N 48°31' W 122°36'0 0.0
2016-May-03 00:33N 48°31' W 122°36'0 0.0
2016-May-02 23:33N 48°31' W 122°36'2 1.9
2016-May-02 22:33N 48°32' W 122°34'2 2.0
2016-May-02 21:34N 48°31' W 122°37'5 5.0
2016-May-02 20:32N 48°35' W 122°33'5 5.2
2016-May-02 19:33N 48°31' W 122°36'0 0.4
2016-May-02 18:33N 48°31' W 122°37'0 0.1
2016-May-02 17:33N 48°31' W 122°36'4 4.2
2016-May-02 16:33N 48°35' W 122°34'4 4.2
2016-May-02 15:33N 48°31' W 122°36'0 0.0
2016-May-02 14:33N 48°31' W 122°36'5 4.7
2016-May-02 13:33N 48°35' W 122°34'4 3.9
2016-May-02 12:33N 48°31' W 122°35'1 0.1
2016-May-02 03:33N 48°31' W 122°36'1 1.1
2016-May-02 02:33N 48°31' W 122°35'1 1.1
2016-May-02 01:33N 48°31' W 122°36'0 0.0
2016-May-02 00:33N 48°31' W 122°36'0 0.0
2016-May-01 23:33N 48°31' W 122°36'0 0.0
2016-May-01 22:33N 48°31' W 122°36'6 5.9
2016-May-01 21:33N 48°36' W 122°32'6 5.9
2016-May-01 20:33N 48°31' W 122°36'0 0.0
2016-May-01 19:33N 48°31' W 122°36'6 6.4
2016-May-01 18:34N 48°37' W 122°33'6 6.4
2016-May-01 17:33N 48°31' W 122°36'5 4.9
2016-May-01 16:33N 48°35' W 122°34'5 4.9
2016-May-01 15:33N 48°31' W 122°36'0 0.0
2016-May-01 14:33N 48°31' W 122°36'0 0.0
2016-May-01 13:33N 48°31' W 122°36'0 0.0
2016-May-01 06:34N 48°31' W 122°36'0 0.0
2016-May-01 05:33N 48°31' W 122°36'3 2.9
2016-May-01 04:33N 48°33' W 122°34'3 2.9
2016-May-01 03:33N 48°31' W 122°36'0 0.0
2016-May-01 02:33N 48°31' W 122°36'0 0.0
2016-May-01 01:33N 48°31' W 122°36'0 0.0
2016-May-01 00:33N 48°31' W 122°36'0 0.2
2016-Apr-30 23:33N 48°31' W 122°36'0 0.2
2016-Apr-30 22:33N 48°31' W 122°36'0 0.0
2016-Apr-30 21:33N 48°31' W 122°36'0 0.0
2016-Apr-30 20:33N 48°31' W 122°36'0 0.0
2016-Apr-30 19:33N 48°31' W 122°37'6 6.2
2016-Apr-30 18:33N 48°36' W 122°33'2 2.4
2016-Apr-30 17:33N 48°34' W 122°34'4 3.8
2016-Apr-30 16:34N 48°31' W 122°37'1 0.6
2016-Apr-30 15:33N 48°31' W 122°36'1 0.5
2016-Apr-30 14:33N 48°31' W 122°36'4 0.5
2016-Apr-30 07:33N 48°34' W 122°34'4 3.6
2016-Apr-30 06:33N 48°31' W 122°36'0 0.0
2016-Apr-30 05:33N 48°31' W 122°36'0 0.0
2016-Apr-30 04:33N 48°31' W 122°36'0 0.0
2016-Apr-30 03:33N 48°31' W 122°36'0 0.1
2016-Apr-30 02:33N 48°31' W 122°36'0 0.1
2016-Apr-30 01:33N 48°31' W 122°36'0 0.0
2016-Apr-30 00:33N 48°31' W 122°36'1 1.1
2016-Apr-29 23:33N 48°31' W 122°35'1 1.1
2016-Apr-29 22:33N 48°31' W 122°36'0 0.0
2016-Apr-29 21:33N 48°31' W 122°37'0 0.0
2016-Apr-29 20:33N 48°31' W 122°37'0 0.0
2016-Apr-29 19:33N 48°31' W 122°36'0 0.0
2016-Apr-29 18:33N 48°31' W 122°36'0 0.0
2016-Apr-29 17:33N 48°31' W 122°36'0 0.0
2016-Apr-29 16:33N 48°31' W 122°36'1 1.1
2016-Apr-29 15:33N 48°31' W 122°35'1 1.0
2016-Apr-29 14:33N 48°31' W 122°36'0 0.0
2016-Apr-29 07:33N 48°31' W 122°36'7 7.0
2016-Apr-29 06:34N 48°37' W 122°32'5 5.2
2016-Apr-29 05:33N 48°32' W 122°34'2 2.0
2016-Apr-29 04:33N 48°31' W 122°36'0 0.0
2016-Apr-29 03:33N 48°31' W 122°36'0 0.2
2016-Apr-29 02:33N 48°31' W 122°36'1 0.6
2016-Apr-29 01:33N 48°31' W 122°35'1 0.8
2016-Apr-29 00:33N 48°31' W 122°36'1 1.0
2016-Apr-28 23:33N 48°31' W 122°35'1 1.0
2016-Apr-28 22:33N 48°31' W 122°36'0 0.0
2016-Apr-28 21:33N 48°31' W 122°36'0 0.0
2016-Apr-28 20:33N 48°31' W 122°36'0 0.0
2016-Apr-28 19:33N 48°31' W 122°36'0 0.0
2016-Apr-28 18:34N 48°31' W 122°36'1 1.1
2016-Apr-28 17:33N 48°31' W 122°35'0 0.1
2016-Apr-28 16:33N 48°31' W 122°35'1 0.6
2016-Apr-28 15:33N 48°31' W 122°35'1 0.6
2016-Apr-28 14:33N 48°31' W 122°36'0 0.0
2016-Apr-28 05:26N 48°31' W 122°36'0 0.0
2016-Apr-28 04:33N 48°31' W 122°36'0 0.0
2016-Apr-28 03:33N 48°31' W 122°36'0 0.2
2016-Apr-28 02:34N 48°31' W 122°36'0 0.2
2016-Apr-28 01:34N 48°31' W 122°36'0 0.0
2016-Apr-28 00:33N 48°31' W 122°36'1 0.6
2016-Apr-27 23:33N 48°31' W 122°36'0 0.3
2016-Apr-27 22:33N 48°31' W 122°36'4 4.0
2016-Apr-27 21:33N 48°35' W 122°34'1 1.2
2016-Apr-27 20:33N 48°36' W 122°34'5 5.2
2016-Apr-27 19:33N 48°31' W 122°35'1 0.8
2016-Apr-27 18:33N 48°31' W 122°36'0 0.0
2016-Apr-27 15:33N 48°31' W 122°36'0 0.1
2016-Apr-27 14:33N 48°31' W 122°36'0 0.0
2016-Apr-27 06:33N 48°31' W 122°36'0 0.0
2016-Apr-27 05:33N 48°31' W 122°36'0 0.0
2016-Apr-27 04:33N 48°31' W 122°36'1 0.7
2016-Apr-27 03:33N 48°31' W 122°35'0 0.4
2016-Apr-27 02:33N 48°31' W 122°36'0 0.3
2016-Apr-27 01:33N 48°31' W 122°36'0 0.0
2016-Apr-27 00:33N 48°31' W 122°36'1 1.0
2016-Apr-26 23:34N 48°31' W 122°35'1 1.0
2016-Apr-26 22:33N 48°31' W 122°36'0 0.0
2016-Apr-26 21:34N 48°31' W 122°36'0 0.0
2016-Apr-26 20:33N 48°31' W 122°36'0 0.2
2016-Apr-26 19:33N 48°31' W 122°36'0 0.2
2016-Apr-26 18:33N 48°31' W 122°36'0 0.0
2016-Apr-26 17:33N 48°31' W 122°36'0 0.0
2016-Apr-26 16:33N 48°31' W 122°36'0 0.1
2016-Apr-26 15:33N 48°31' W 122°37'4 3.5
2016-Apr-26 14:32N 48°34' W 122°34'3 0.7
2016-Apr-26 09:33N 48°31' W 122°36'4 0.8
2016-Apr-26 04:33N 48°35' W 122°34'  

Dump ship's entire track history